sensor_id;sensor_type;location;lat;lon;timestamp;P1;durP1;ratioP1;P2;durP2;ratioP2
71562;SDS011;59391;52.504;13.438;2023-10-09T00:01:00;8.00;;;4.17;;
71562;SDS011;59391;52.504;13.438;2023-10-09T00:03:29;7.63;;;4.18;;
71562;SDS011;59391;52.504;13.438;2023-10-09T00:05:55;7.15;;;4.05;;
71562;SDS011;59391;52.504;13.438;2023-10-09T00:08:21;6.27;;;4.10;;
71562;SDS011;59391;52.504;13.438;2023-10-09T00:10:50;6.40;;;3.90;;
71562;SDS011;59391;52.504;13.438;2023-10-09T00:13:23;6.18;;;4.18;;
71562;SDS011;59391;52.504;13.438;2023-10-09T00:15:57;5.95;;;3.75;;
71562;SDS011;59391;52.504;13.438;2023-10-09T00:18:38;6.72;;;3.97;;
71562;SDS011;59391;52.504;13.438;2023-10-09T00:21:04;6.60;;;3.60;;
71562;SDS011;59391;52.504;13.438;2023-10-09T00:23:36;7.22;;;4.05;;
71562;SDS011;59391;52.504;13.438;2023-10-09T00:26:03;7.15;;;4.90;;
71562;SDS011;59391;52.504;13.438;2023-10-09T00:28:41;8.30;;;4.70;;
71562;SDS011;59391;52.504;13.438;2023-10-09T00:31:09;6.88;;;4.60;;
71562;SDS011;59391;52.504;13.438;2023-10-09T00:33:40;6.70;;;4.23;;
71562;SDS011;59391;52.504;13.438;2023-10-09T00:36:10;7.53;;;5.20;;
71562;SDS011;59391;52.504;13.438;2023-10-09T00:38:41;8.95;;;5.57;;
71562;SDS011;59391;52.504;13.438;2023-10-09T00:41:15;8.05;;;5.10;;
71562;SDS011;59391;52.504;13.438;2023-10-09T00:43:49;8.80;;;5.28;;
71562;SDS011;59391;52.504;13.438;2023-10-09T00:46:18;7.77;;;4.57;;
71562;SDS011;59391;52.504;13.438;2023-10-09T00:48:53;16.02;;;10.13;;
71562;SDS011;59391;52.504;13.438;2023-10-09T00:51:23;10.35;;;6.07;;
71562;SDS011;59391;52.504;13.438;2023-10-09T00:53:55;8.95;;;5.80;;
71562;SDS011;59391;52.504;13.438;2023-10-09T00:56:31;8.38;;;4.82;;
71562;SDS011;59391;52.504;13.438;2023-10-09T00:59:04;6.97;;;4.43;;
71562;SDS011;59391;52.504;13.438;2023-10-09T01:01:35;6.32;;;4.55;;
71562;SDS011;59391;52.504;13.438;2023-10-09T01:04:05;8.30;;;5.07;;
71562;SDS011;59391;52.504;13.438;2023-10-09T01:06:35;7.32;;;4.30;;
71562;SDS011;59391;52.504;13.438;2023-10-09T01:09:09;6.93;;;4.47;;
71562;SDS011;59391;52.504;13.438;2023-10-09T01:11:40;8.30;;;4.70;;
71562;SDS011;59391;52.504;13.438;2023-10-09T01:14:13;11.30;;;6.50;;
71562;SDS011;59391;52.504;13.438;2023-10-09T01:16:40;7.18;;;4.70;;
71562;SDS011;59391;52.504;13.438;2023-10-09T01:19:08;7.00;;;4.32;;
71562;SDS011;59391;52.504;13.438;2023-10-09T01:21:48;7.28;;;4.30;;
71562;SDS011;59391;52.504;13.438;2023-10-09T01:24:19;7.17;;;4.60;;
71562;SDS011;59391;52.504;13.438;2023-10-09T01:26:47;6.20;;;4.30;;
71562;SDS011;59391;52.504;13.438;2023-10-09T01:29:15;7.15;;;4.35;;
71562;SDS011;59391;52.504;13.438;2023-10-09T01:31:47;6.85;;;4.28;;
71562;SDS011;59391;52.504;13.438;2023-10-09T01:37:07;5.93;;;3.97;;
71562;SDS011;59391;52.504;13.438;2023-10-09T01:39:51;7.30;;;4.13;;
71562;SDS011;59391;52.504;13.438;2023-10-09T01:42:23;6.05;;;4.45;;
71562;SDS011;59391;52.504;13.438;2023-10-09T01:44:59;7.07;;;4.25;;
71562;SDS011;59391;52.504;13.438;2023-10-09T01:47:51;7.38;;;4.72;;
71562;SDS011;59391;52.504;13.438;2023-10-09T01:50:18;8.43;;;4.63;;
71562;SDS011;59391;52.504;13.438;2023-10-09T01:52:49;6.38;;;4.05;;
71562;SDS011;59391;52.504;13.438;2023-10-09T01:55:18;7.68;;;4.47;;
71562;SDS011;59391;52.504;13.438;2023-10-09T01:58:08;8.23;;;4.50;;
71562;SDS011;59391;52.504;13.438;2023-10-09T02:00:42;6.93;;;4.78;;
71562;SDS011;59391;52.504;13.438;2023-10-09T02:03:14;7.30;;;4.50;;
71562;SDS011;59391;52.504;13.438;2023-10-09T02:05:44;7.70;;;4.68;;
71562;SDS011;59391;52.504;13.438;2023-10-09T02:08:10;10.40;;;5.88;;
71562;SDS011;59391;52.504;13.438;2023-10-09T02:10:36;7.22;;;5.03;;
71562;SDS011;59391;52.504;13.438;2023-10-09T02:13:05;6.53;;;4.50;;
71562;SDS011;59391;52.504;13.438;2023-10-09T02:15:32;7.37;;;4.60;;
71562;SDS011;59391;52.504;13.438;2023-10-09T02:18:16;6.90;;;4.50;;
71562;SDS011;59391;52.504;13.438;2023-10-09T02:20:51;8.23;;;4.88;;
71562;SDS011;59391;52.504;13.438;2023-10-09T02:23:25;8.35;;;4.85;;
71562;SDS011;59391;52.504;13.438;2023-10-09T02:26:04;9.88;;;5.57;;
71562;SDS011;59391;52.504;13.438;2023-10-09T02:28:33;6.50;;;4.67;;
71562;SDS011;59391;52.504;13.438;2023-10-09T02:31:11;8.77;;;4.70;;
71562;SDS011;59391;52.504;13.438;2023-10-09T02:33:38;7.00;;;4.40;;
71562;SDS011;59391;52.504;13.438;2023-10-09T02:36:06;8.57;;;4.85;;
71562;SDS011;59391;52.504;13.438;2023-10-09T02:38:33;13.10;;;8.80;;
71562;SDS011;59391;52.504;13.438;2023-10-09T02:41:05;7.67;;;4.77;;
71562;SDS011;59391;52.504;13.438;2023-10-09T02:43:32;7.15;;;3.92;;
71562;SDS011;59391;52.504;13.438;2023-10-09T02:46:09;8.73;;;4.93;;
71562;SDS011;59391;52.504;13.438;2023-10-09T02:48:45;7.07;;;4.88;;
71562;SDS011;59391;52.504;13.438;2023-10-09T02:51:18;10.05;;;5.75;;
71562;SDS011;59391;52.504;13.438;2023-10-09T02:53:54;7.55;;;5.25;;
71562;SDS011;59391;52.504;13.438;2023-10-09T02:56:32;7.78;;;5.07;;
71562;SDS011;59391;52.504;13.438;2023-10-09T02:59:12;8.25;;;4.63;;
71562;SDS011;59391;52.504;13.438;2023-10-09T03:01:40;8.38;;;4.80;;
71562;SDS011;59391;52.504;13.438;2023-10-09T03:04:06;6.47;;;4.90;;
71562;SDS011;59391;52.504;13.438;2023-10-09T03:06:35;7.63;;;4.93;;
71562;SDS011;59391;52.504;13.438;2023-10-09T03:09:08;8.85;;;5.03;;
71562;SDS011;59391;52.504;13.438;2023-10-09T03:11:51;8.30;;;5.10;;
71562;SDS011;59391;52.504;13.438;2023-10-09T03:14:25;10.98;;;5.90;;
71562;SDS011;59391;52.504;13.438;2023-10-09T03:16:55;26.65;;;17.35;;
71562;SDS011;59391;52.504;13.438;2023-10-09T03:19:30;8.40;;;6.00;;
71562;SDS011;59391;52.504;13.438;2023-10-09T03:22:06;9.32;;;6.03;;
71562;SDS011;59391;52.504;13.438;2023-10-09T03:24:35;10.75;;;6.28;;
71562;SDS011;59391;52.504;13.438;2023-10-09T03:27:02;9.02;;;5.93;;
71562;SDS011;59391;52.504;13.438;2023-10-09T03:29:28;9.25;;;5.82;;
71562;SDS011;59391;52.504;13.438;2023-10-09T03:31:54;10.45;;;5.68;;
71562;SDS011;59391;52.504;13.438;2023-10-09T03:34:21;8.93;;;5.43;;
71562;SDS011;59391;52.504;13.438;2023-10-09T03:36:49;8.23;;;5.27;;
71562;SDS011;59391;52.504;13.438;2023-10-09T03:39:24;7.47;;;5.07;;
71562;SDS011;59391;52.504;13.438;2023-10-09T03:41:59;7.78;;;5.57;;
71562;SDS011;59391;52.504;13.438;2023-10-09T03:44:30;8.32;;;5.28;;
71562;SDS011;59391;52.504;13.438;2023-10-09T03:47:00;7.72;;;5.20;;
71562;SDS011;59391;52.504;13.438;2023-10-09T03:49:27;8.50;;;5.07;;
71562;SDS011;59391;52.504;13.438;2023-10-09T03:51:54;7.18;;;4.85;;
71562;SDS011;59391;52.504;13.438;2023-10-09T03:54:20;8.95;;;5.00;;
71562;SDS011;59391;52.504;13.438;2023-10-09T03:56:47;7.65;;;4.45;;
71562;SDS011;59391;52.504;13.438;2023-10-09T03:59:15;7.80;;;5.03;;
71562;SDS011;59391;52.504;13.438;2023-10-09T04:01:45;9.27;;;5.00;;
71562;SDS011;59391;52.504;13.438;2023-10-09T04:04:12;8.77;;;5.22;;
71562;SDS011;59391;52.504;13.438;2023-10-09T04:06:39;9.15;;;5.15;;
71562;SDS011;59391;52.504;13.438;2023-10-09T04:11:52;8.52;;;5.10;;
71562;SDS011;59391;52.504;13.438;2023-10-09T04:14:37;7.77;;;4.10;;
71562;SDS011;59391;52.504;13.438;2023-10-09T04:17:22;6.72;;;4.30;;
71562;SDS011;59391;52.504;13.438;2023-10-09T04:19:54;7.00;;;4.85;;
71562;SDS011;59391;52.504;13.438;2023-10-09T04:22:39;7.20;;;4.80;;
71562;SDS011;59391;52.504;13.438;2023-10-09T04:25:24;9.77;;;5.28;;
71562;SDS011;59391;52.504;13.438;2023-10-09T04:27:54;8.90;;;4.73;;
71562;SDS011;59391;52.504;13.438;2023-10-09T04:30:40;7.30;;;4.40;;
71562;SDS011;59391;52.504;13.438;2023-10-09T04:33:14;7.75;;;4.93;;
71562;SDS011;59391;52.504;13.438;2023-10-09T04:38:46;9.60;;;4.72;;
71562;SDS011;59391;52.504;13.438;2023-10-09T04:41:33;9.13;;;4.63;;
71562;SDS011;59391;52.504;13.438;2023-10-09T04:44:16;8.38;;;5.18;;
71562;SDS011;59391;52.504;13.438;2023-10-09T04:46:54;9.00;;;5.40;;
71562;SDS011;59391;52.504;13.438;2023-10-09T04:49:36;11.20;;;5.63;;
71562;SDS011;59391;52.504;13.438;2023-10-09T04:52:21;8.15;;;5.10;;
71562;SDS011;59391;52.504;13.438;2023-10-09T04:54:56;9.57;;;4.53;;
71562;SDS011;59391;52.504;13.438;2023-10-09T04:57:32;8.65;;;5.30;;
71562;SDS011;59391;52.504;13.438;2023-10-09T05:00:14;8.93;;;5.25;;
71562;SDS011;59391;52.504;13.438;2023-10-09T05:02:51;10.10;;;5.10;;
71562;SDS011;59391;52.504;13.438;2023-10-09T05:05:24;8.93;;;5.18;;
71562;SDS011;59391;52.504;13.438;2023-10-09T05:08:07;8.97;;;5.13;;
71562;SDS011;59391;52.504;13.438;2023-10-09T05:10:54;8.15;;;6.00;;
71562;SDS011;59391;52.504;13.438;2023-10-09T05:13:28;8.82;;;5.30;;
71562;SDS011;59391;52.504;13.438;2023-10-09T05:16:04;9.52;;;5.38;;
71562;SDS011;59391;52.504;13.438;2023-10-09T05:18:45;9.30;;;5.60;;
71562;SDS011;59391;52.504;13.438;2023-10-09T05:21:21;9.33;;;5.30;;
71562;SDS011;59391;52.504;13.438;2023-10-09T05:24:09;9.48;;;5.20;;
71562;SDS011;59391;52.504;13.438;2023-10-09T05:26:43;6.80;;;5.25;;
71562;SDS011;59391;52.504;13.438;2023-10-09T05:29:13;7.18;;;4.80;;
71562;SDS011;59391;52.504;13.438;2023-10-09T05:31:53;7.45;;;5.60;;
71562;SDS011;59391;52.504;13.438;2023-10-09T05:34:28;7.10;;;4.70;;
71562;SDS011;59391;52.504;13.438;2023-10-09T05:37:13;7.85;;;4.80;;
71562;SDS011;59391;52.504;13.438;2023-10-09T05:39:45;7.97;;;4.70;;
71562;SDS011;59391;52.504;13.438;2023-10-09T05:42:30;8.07;;;5.05;;
71562;SDS011;59391;52.504;13.438;2023-10-09T05:45:03;7.63;;;4.75;;
71562;SDS011;59391;52.504;13.438;2023-10-09T05:47:42;7.10;;;4.73;;
71562;SDS011;59391;52.504;13.438;2023-10-09T05:50:23;9.00;;;5.22;;
71562;SDS011;59391;52.504;13.438;2023-10-09T05:52:52;7.18;;;4.50;;
71562;SDS011;59391;52.504;13.438;2023-10-09T05:55:23;7.75;;;4.20;;
71562;SDS011;59391;52.504;13.438;2023-10-09T05:57:56;8.57;;;5.78;;
71562;SDS011;59391;52.504;13.438;2023-10-09T06:00:54;9.60;;;4.70;;
71562;SDS011;59391;52.504;13.438;2023-10-09T06:03:38;8.38;;;4.80;;
71562;SDS011;59391;52.504;13.438;2023-10-09T06:06:37;8.23;;;4.78;;
71562;SDS011;59391;52.504;13.438;2023-10-09T06:09:21;7.97;;;5.20;;
71562;SDS011;59391;52.504;13.438;2023-10-09T06:11:48;8.80;;;4.83;;
71562;SDS011;59391;52.504;13.438;2023-10-09T06:14:18;9.88;;;5.45;;
71562;SDS011;59391;52.504;13.438;2023-10-09T06:17:11;7.40;;;4.85;;
71562;SDS011;59391;52.504;13.438;2023-10-09T06:19:39;8.63;;;5.00;;
71562;SDS011;59391;52.504;13.438;2023-10-09T06:22:08;7.50;;;5.03;;
71562;SDS011;59391;52.504;13.438;2023-10-09T06:24:55;7.88;;;5.20;;
71562;SDS011;59391;52.504;13.438;2023-10-09T06:27:22;9.18;;;5.32;;
71562;SDS011;59391;52.504;13.438;2023-10-09T06:29:54;9.93;;;5.40;;
71562;SDS011;59391;52.504;13.438;2023-10-09T06:32:40;10.65;;;6.60;;
71562;SDS011;59391;52.504;13.438;2023-10-09T06:35:25;8.52;;;5.35;;
71562;SDS011;59391;52.504;13.438;2023-10-09T06:37:57;8.40;;;5.03;;
71562;SDS011;59391;52.504;13.438;2023-10-09T06:43:23;11.63;;;5.15;;
71562;SDS011;59391;52.504;13.438;2023-10-09T06:45:49;8.77;;;5.57;;
71562;SDS011;59391;52.504;13.438;2023-10-09T06:48:23;7.78;;;5.30;;
71562;SDS011;59391;52.504;13.438;2023-10-09T06:51:02;10.00;;;5.38;;
71562;SDS011;59391;52.504;13.438;2023-10-09T06:53:52;11.68;;;6.18;;
71562;SDS011;59391;52.504;13.438;2023-10-09T06:58:50;8.32;;;4.97;;
71562;SDS011;59391;52.504;13.438;2023-10-09T07:01:20;8.55;;;5.00;;
71562;SDS011;59391;52.504;13.438;2023-10-09T07:03:52;6.72;;;4.70;;
71562;SDS011;59391;52.504;13.438;2023-10-09T07:06:40;8.00;;;5.20;;
71562;SDS011;59391;52.504;13.438;2023-10-09T07:09:05;8.23;;;4.75;;
71562;SDS011;59391;52.504;13.438;2023-10-09T07:11:31;8.67;;;4.83;;
71562;SDS011;59391;52.504;13.438;2023-10-09T07:14:05;7.45;;;4.68;;
71562;SDS011;59391;52.504;13.438;2023-10-09T07:16:56;7.15;;;4.85;;
71562;SDS011;59391;52.504;13.438;2023-10-09T07:19:41;7.90;;;4.87;;
71562;SDS011;59391;52.504;13.438;2023-10-09T07:22:08;7.35;;;4.70;;
71562;SDS011;59391;52.504;13.438;2023-10-09T07:30:09;7.65;;;5.00;;
71562;SDS011;59391;52.504;13.438;2023-10-09T07:35:38;8.45;;;4.85;;
71562;SDS011;59391;52.504;13.438;2023-10-09T07:38:20;7.90;;;5.47;;
71562;SDS011;59391;52.504;13.438;2023-10-09T07:40:49;8.50;;;4.70;;
71562;SDS011;59391;52.504;13.438;2023-10-09T07:43:35;7.07;;;4.88;;
71562;SDS011;59391;52.504;13.438;2023-10-09T07:46:09;8.90;;;5.17;;
71562;SDS011;59391;52.504;13.438;2023-10-09T07:48:56;8.43;;;4.68;;
71562;SDS011;59391;52.504;13.438;2023-10-09T07:51:37;9.55;;;5.30;;
71562;SDS011;59391;52.504;13.438;2023-10-09T07:54:08;8.70;;;5.28;;
71562;SDS011;59391;52.504;13.438;2023-10-09T07:56:39;8.73;;;5.35;;
71562;SDS011;59391;52.504;13.438;2023-10-09T07:59:07;7.43;;;4.80;;
71562;SDS011;59391;52.504;13.438;2023-10-09T08:01:46;8.75;;;5.85;;
71562;SDS011;59391;52.504;13.438;2023-10-09T08:04:24;8.35;;;5.38;;
71562;SDS011;59391;52.504;13.438;2023-10-09T08:07:05;7.72;;;4.97;;
71562;SDS011;59391;52.504;13.438;2023-10-09T08:09:59;10.50;;;5.90;;
71562;SDS011;59391;52.504;13.438;2023-10-09T08:12:55;9.67;;;5.87;;
71562;SDS011;59391;52.504;13.438;2023-10-09T08:15:24;9.00;;;5.95;;
71562;SDS011;59391;52.504;13.438;2023-10-09T08:18:16;9.15;;;5.75;;
71562;SDS011;59391;52.504;13.438;2023-10-09T08:20:53;9.73;;;5.60;;
71562;SDS011;59391;52.504;13.438;2023-10-09T08:23:22;8.05;;;4.95;;
71562;SDS011;59391;52.504;13.438;2023-10-09T08:26:02;9.90;;;6.00;;
71562;SDS011;59391;52.504;13.438;2023-10-09T08:28:39;9.23;;;5.18;;
71562;SDS011;59391;52.504;13.438;2023-10-09T08:31:11;10.25;;;5.38;;
71562;SDS011;59391;52.504;13.438;2023-10-09T08:33:59;9.48;;;5.45;;
71562;SDS011;59391;52.504;13.438;2023-10-09T08:36:28;11.00;;;6.40;;
71562;SDS011;59391;52.504;13.438;2023-10-09T08:39:01;9.83;;;5.87;;
71562;SDS011;59391;52.504;13.438;2023-10-09T08:41:40;8.55;;;5.50;;
71562;SDS011;59391;52.504;13.438;2023-10-09T08:44:06;10.30;;;6.80;;
71562;SDS011;59391;52.504;13.438;2023-10-09T08:46:32;8.40;;;5.05;;
71562;SDS011;59391;52.504;13.438;2023-10-09T08:48:59;9.20;;;6.00;;
71562;SDS011;59391;52.504;13.438;2023-10-09T08:51:25;8.98;;;5.75;;
71562;SDS011;59391;52.504;13.438;2023-10-09T08:53:53;8.48;;;6.00;;
71562;SDS011;59391;52.504;13.438;2023-10-09T08:56:20;7.65;;;5.40;;
71562;SDS011;59391;52.504;13.438;2023-10-09T08:58:47;9.48;;;5.65;;
71562;SDS011;59391;52.504;13.438;2023-10-09T09:01:24;9.85;;;5.72;;
71562;SDS011;59391;52.504;13.438;2023-10-09T09:03:50;9.35;;;6.30;;
71562;SDS011;59391;52.504;13.438;2023-10-09T09:06:21;11.77;;;5.88;;
71562;SDS011;59391;52.504;13.438;2023-10-09T09:08:48;8.30;;;5.60;;
71562;SDS011;59391;52.504;13.438;2023-10-09T09:11:19;8.32;;;5.40;;
71562;SDS011;59391;52.504;13.438;2023-10-09T09:16:28;10.13;;;5.65;;
71562;SDS011;59391;52.504;13.438;2023-10-09T09:18:56;8.50;;;5.65;;
71562;SDS011;59391;52.504;13.438;2023-10-09T09:21:33;8.48;;;5.75;;
71562;SDS011;59391;52.504;13.438;2023-10-09T09:24:05;10.90;;;5.63;;
71562;SDS011;59391;52.504;13.438;2023-10-09T09:26:41;8.00;;;5.65;;
71562;SDS011;59391;52.504;13.438;2023-10-09T09:29:14;10.13;;;6.10;;
71562;SDS011;59391;52.504;13.438;2023-10-09T09:31:55;10.40;;;5.93;;
71562;SDS011;59391;52.504;13.438;2023-10-09T09:34:47;9.43;;;5.13;;
71562;SDS011;59391;52.504;13.438;2023-10-09T09:37:20;9.20;;;6.18;;
71562;SDS011;59391;52.504;13.438;2023-10-09T09:39:53;12.40;;;7.47;;
71562;SDS011;59391;52.504;13.438;2023-10-09T09:42:22;10.60;;;6.43;;
71562;SDS011;59391;52.504;13.438;2023-10-09T09:44:51;8.85;;;6.22;;
71562;SDS011;59391;52.504;13.438;2023-10-09T09:47:17;9.05;;;6.10;;
71562;SDS011;59391;52.504;13.438;2023-10-09T09:49:51;8.18;;;5.88;;
71562;SDS011;59391;52.504;13.438;2023-10-09T09:52:30;8.80;;;5.60;;
71562;SDS011;59391;52.504;13.438;2023-10-09T09:55:09;8.90;;;5.85;;
71562;SDS011;59391;52.504;13.438;2023-10-09T09:57:47;8.45;;;5.47;;
71562;SDS011;59391;52.504;13.438;2023-10-09T10:00:21;10.55;;;5.80;;
71562;SDS011;59391;52.504;13.438;2023-10-09T10:03:41;8.65;;;5.57;;
71562;SDS011;59391;52.504;13.438;2023-10-09T10:06:04;8.32;;;5.50;;
71562;SDS011;59391;52.504;13.438;2023-10-09T10:08:37;8.15;;;5.70;;
71562;SDS011;59391;52.504;13.438;2023-10-09T10:11:06;7.78;;;5.65;;
71562;SDS011;59391;52.504;13.438;2023-10-09T10:16:08;9.55;;;5.63;;
71562;SDS011;59391;52.504;13.438;2023-10-09T10:18:57;8.25;;;6.10;;
71562;SDS011;59391;52.504;13.438;2023-10-09T10:21:43;10.50;;;6.25;;
71562;SDS011;59391;52.504;13.438;2023-10-09T10:27:14;11.23;;;7.10;;
71562;SDS011;59391;52.504;13.438;2023-10-09T10:30:34;15.77;;;9.23;;
71562;SDS011;59391;52.504;13.438;2023-10-09T10:32:54;11.02;;;6.97;;
71562;SDS011;59391;52.504;13.438;2023-10-09T10:35:34;9.20;;;6.20;;
71562;SDS011;59391;52.504;13.438;2023-10-09T10:38:30;10.10;;;7.28;;
71562;SDS011;59391;52.504;13.438;2023-10-09T10:41:09;9.43;;;6.50;;
71562;SDS011;59391;52.504;13.438;2023-10-09T10:43:37;8.23;;;5.93;;
71562;SDS011;59391;52.504;13.438;2023-10-09T10:46:18;12.30;;;6.50;;
71562;SDS011;59391;52.504;13.438;2023-10-09T10:48:49;9.98;;;6.40;;
71562;SDS011;59391;52.504;13.438;2023-10-09T10:51:24;10.65;;;6.50;;
71562;SDS011;59391;52.504;13.438;2023-10-09T10:54:06;8.52;;;6.38;;
71562;SDS011;59391;52.504;13.438;2023-10-09T10:57:17;9.00;;;6.15;;
71562;SDS011;59391;52.504;13.438;2023-10-09T11:00:11;10.13;;;6.00;;
71562;SDS011;59391;52.504;13.438;2023-10-09T11:02:43;11.50;;;6.53;;
71562;SDS011;59391;52.504;13.438;2023-10-09T11:05:09;8.32;;;6.00;;
71562;SDS011;59391;52.504;13.438;2023-10-09T11:07:50;8.85;;;6.25;;
71562;SDS011;59391;52.504;13.438;2023-10-09T11:10:22;9.40;;;6.13;;
71562;SDS011;59391;52.504;13.438;2023-10-09T11:12:56;9.02;;;6.03;;
71562;SDS011;59391;52.504;13.438;2023-10-09T11:15:38;10.90;;;6.32;;
71562;SDS011;59391;52.504;13.438;2023-10-09T11:18:11;9.50;;;6.85;;
71562;SDS011;59391;52.504;13.438;2023-10-09T11:20:45;9.93;;;6.90;;
71562;SDS011;59391;52.504;13.438;2023-10-09T11:23:44;8.35;;;5.97;;
71562;SDS011;59391;52.504;13.438;2023-10-09T11:26:17;9.77;;;6.38;;
71562;SDS011;59391;52.504;13.438;2023-10-09T11:29:14;9.88;;;6.22;;
71562;SDS011;59391;52.504;13.438;2023-10-09T11:32:16;10.20;;;6.57;;
71562;SDS011;59391;52.504;13.438;2023-10-09T11:34:44;10.30;;;7.15;;
71562;SDS011;59391;52.504;13.438;2023-10-09T11:37:21;10.35;;;7.30;;
71562;SDS011;59391;52.504;13.438;2023-10-09T11:39:55;11.38;;;7.53;;
71562;SDS011;59391;52.504;13.438;2023-10-09T11:42:26;11.90;;;8.25;;
71562;SDS011;59391;52.504;13.438;2023-10-09T11:45:05;11.98;;;7.47;;
71562;SDS011;59391;52.504;13.438;2023-10-09T11:47:47;10.35;;;7.85;;
71562;SDS011;59391;52.504;13.438;2023-10-09T11:53:08;11.32;;;8.15;;
71562;SDS011;59391;52.504;13.438;2023-10-09T11:55:58;11.35;;;8.00;;
71562;SDS011;59391;52.504;13.438;2023-10-09T11:58:25;13.00;;;7.97;;
71562;SDS011;59391;52.504;13.438;2023-10-09T12:00:51;12.57;;;7.70;;
71562;SDS011;59391;52.504;13.438;2023-10-09T12:03:27;11.15;;;8.23;;
71562;SDS011;59391;52.504;13.438;2023-10-09T12:05:55;14.05;;;8.60;;
71562;SDS011;59391;52.504;13.438;2023-10-09T12:08:39;12.40;;;8.57;;
71562;SDS011;59391;52.504;13.438;2023-10-09T12:11:05;12.15;;;8.82;;
71562;SDS011;59391;52.504;13.438;2023-10-09T12:13:37;17.20;;;10.18;;
71562;SDS011;59391;52.504;13.438;2023-10-09T12:16:03;13.20;;;8.75;;
71562;SDS011;59391;52.504;13.438;2023-10-09T12:18:35;10.35;;;7.90;;
71562;SDS011;59391;52.504;13.438;2023-10-09T12:21:04;12.13;;;8.32;;
71562;SDS011;59391;52.504;13.438;2023-10-09T12:23:31;12.35;;;8.63;;
71562;SDS011;59391;52.504;13.438;2023-10-09T12:26:01;10.98;;;8.10;;
71562;SDS011;59391;52.504;13.438;2023-10-09T12:28:28;10.52;;;7.55;;
71562;SDS011;59391;52.504;13.438;2023-10-09T12:30:54;10.95;;;7.70;;
71562;SDS011;59391;52.504;13.438;2023-10-09T12:33:26;10.20;;;7.20;;
71562;SDS011;59391;52.504;13.438;2023-10-09T12:35:56;11.25;;;8.25;;
71562;SDS011;59391;52.504;13.438;2023-10-09T12:38:28;11.27;;;8.25;;
71562;SDS011;59391;52.504;13.438;2023-10-09T12:41:04;11.55;;;7.90;;
71562;SDS011;59391;52.504;13.438;2023-10-09T12:43:43;13.05;;;9.18;;
71562;SDS011;59391;52.504;13.438;2023-10-09T12:46:08;12.52;;;9.02;;
71562;SDS011;59391;52.504;13.438;2023-10-09T12:48:34;12.50;;;9.00;;
71562;SDS011;59391;52.504;13.438;2023-10-09T12:51:01;13.18;;;9.00;;
71562;SDS011;59391;52.504;13.438;2023-10-09T12:53:31;12.73;;;9.60;;
71562;SDS011;59391;52.504;13.438;2023-10-09T12:55:58;14.88;;;9.80;;
71562;SDS011;59391;52.504;13.438;2023-10-09T12:58:24;11.98;;;9.40;;
71562;SDS011;59391;52.504;13.438;2023-10-09T13:00:51;13.38;;;9.65;;
71562;SDS011;59391;52.504;13.438;2023-10-09T13:03:18;15.13;;;10.07;;
71562;SDS011;59391;52.504;13.438;2023-10-09T13:05:48;13.90;;;9.73;;
71562;SDS011;59391;52.504;13.438;2023-10-09T13:08:22;13.00;;;9.80;;
71562;SDS011;59391;52.504;13.438;2023-10-09T13:10:56;13.55;;;9.75;;
71562;SDS011;59391;52.504;13.438;2023-10-09T13:13:29;15.85;;;10.38;;
71562;SDS011;59391;52.504;13.438;2023-10-09T13:16:14;15.63;;;10.60;;
71562;SDS011;59391;52.504;13.438;2023-10-09T13:18:49;12.75;;;9.90;;
71562;SDS011;59391;52.504;13.438;2023-10-09T13:21:19;13.80;;;9.70;;
71562;SDS011;59391;52.504;13.438;2023-10-09T13:24:02;16.40;;;10.57;;
71562;SDS011;59391;52.504;13.438;2023-10-09T13:26:28;14.25;;;10.50;;
71562;SDS011;59391;52.504;13.438;2023-10-09T13:28:59;14.13;;;9.85;;
71562;SDS011;59391;52.504;13.438;2023-10-09T13:31:28;13.27;;;9.77;;
71562;SDS011;59391;52.504;13.438;2023-10-09T13:33:59;16.23;;;11.10;;
71562;SDS011;59391;52.504;13.438;2023-10-09T13:36:26;17.23;;;11.98;;
71562;SDS011;59391;52.504;13.438;2023-10-09T13:38:55;20.63;;;12.93;;
71562;SDS011;59391;52.504;13.438;2023-10-09T13:41:22;21.35;;;13.13;;
71562;SDS011;59391;52.504;13.438;2023-10-09T13:43:54;33.10;;;18.30;;
71562;SDS011;59391;52.504;13.438;2023-10-09T13:46:21;19.05;;;11.82;;
71562;SDS011;59391;52.504;13.438;2023-10-09T13:48:49;20.42;;;12.15;;
71562;SDS011;59391;52.504;13.438;2023-10-09T13:51:15;37.07;;;20.37;;
71562;SDS011;59391;52.504;13.438;2023-10-09T13:53:44;35.33;;;18.75;;
71562;SDS011;59391;52.504;13.438;2023-10-09T13:56:15;18.98;;;11.40;;
71562;SDS011;59391;52.504;13.438;2023-10-09T13:58:47;28.33;;;15.32;;
71562;SDS011;59391;52.504;13.438;2023-10-09T14:01:15;25.73;;;13.05;;
71562;SDS011;59391;52.504;13.438;2023-10-09T14:03:57;16.55;;;10.88;;
71562;SDS011;59391;52.504;13.438;2023-10-09T14:06:25;17.73;;;12.07;;
71562;SDS011;59391;52.504;13.438;2023-10-09T14:09:03;17.33;;;12.38;;
71562;SDS011;59391;52.504;13.438;2023-10-09T14:11:30;14.98;;;10.77;;
71562;SDS011;59391;52.504;13.438;2023-10-09T14:13:57;16.10;;;11.18;;
71562;SDS011;59391;52.504;13.438;2023-10-09T14:16:26;14.68;;;9.80;;
71562;SDS011;59391;52.504;13.438;2023-10-09T14:18:53;14.57;;;10.43;;
71562;SDS011;59391;52.504;13.438;2023-10-09T14:21:26;13.35;;;8.90;;
71562;SDS011;59391;52.504;13.438;2023-10-09T14:23:58;14.55;;;9.77;;
71562;SDS011;59391;52.504;13.438;2023-10-09T14:26:26;15.40;;;10.23;;
71562;SDS011;59391;52.504;13.438;2023-10-09T14:28:54;14.55;;;9.40;;
71562;SDS011;59391;52.504;13.438;2023-10-09T14:31:24;13.77;;;10.13;;
71562;SDS011;59391;52.504;13.438;2023-10-09T14:33:57;13.52;;;9.38;;
71562;SDS011;59391;52.504;13.438;2023-10-09T14:36:23;15.27;;;10.25;;
71562;SDS011;59391;52.504;13.438;2023-10-09T14:38:58;14.60;;;11.35;;
71562;SDS011;59391;52.504;13.438;2023-10-09T14:41:25;16.17;;;11.05;;
71562;SDS011;59391;52.504;13.438;2023-10-09T14:43:52;13.75;;;10.13;;
71562;SDS011;59391;52.504;13.438;2023-10-09T14:46:19;14.95;;;10.00;;
71562;SDS011;59391;52.504;13.438;2023-10-09T14:48:54;14.05;;;10.00;;
71562;SDS011;59391;52.504;13.438;2023-10-09T14:51:21;16.30;;;10.15;;
71562;SDS011;59391;52.504;13.438;2023-10-09T14:53:58;12.98;;;9.55;;
71562;SDS011;59391;52.504;13.438;2023-10-09T14:56:26;14.98;;;10.63;;
71562;SDS011;59391;52.504;13.438;2023-10-09T14:58:59;13.23;;;9.75;;
71562;SDS011;59391;52.504;13.438;2023-10-09T15:01:29;16.33;;;10.70;;
71562;SDS011;59391;52.504;13.438;2023-10-09T15:03:56;14.75;;;10.57;;
71562;SDS011;59391;52.504;13.438;2023-10-09T15:06:24;23.60;;;14.57;;
71562;SDS011;59391;52.504;13.438;2023-10-09T15:08:55;18.90;;;13.15;;
71562;SDS011;59391;52.504;13.438;2023-10-09T15:11:32;20.80;;;13.38;;
71562;SDS011;59391;52.504;13.438;2023-10-09T15:13:58;14.50;;;10.40;;
71562;SDS011;59391;52.504;13.438;2023-10-09T15:16:25;15.13;;;10.63;;
71562;SDS011;59391;52.504;13.438;2023-10-09T15:18:53;13.75;;;10.07;;
71562;SDS011;59391;52.504;13.438;2023-10-09T15:21:22;15.93;;;10.25;;
71562;SDS011;59391;52.504;13.438;2023-10-09T15:23:51;15.38;;;10.52;;
71562;SDS011;59391;52.504;13.438;2023-10-09T15:26:19;17.45;;;12.23;;
71562;SDS011;59391;52.504;13.438;2023-10-09T15:28:46;15.77;;;11.52;;
71562;SDS011;59391;52.504;13.438;2023-10-09T15:31:11;15.82;;;11.43;;
71562;SDS011;59391;52.504;13.438;2023-10-09T15:33:38;15.68;;;10.73;;
71562;SDS011;59391;52.504;13.438;2023-10-09T15:36:11;13.37;;;9.50;;
71562;SDS011;59391;52.504;13.438;2023-10-09T15:38:39;13.27;;;9.38;;
71562;SDS011;59391;52.504;13.438;2023-10-09T15:41:05;13.80;;;10.05;;